Time;durP1;ratioP1;P1;durP2;ratioP2;P2;SDS_P1;SDS_P2;PMS_P1;PMS_P2;Temp;Humidity;BMP_temperature;BMP_pressure;BME280_temperature;BME280_humidity;BME280_pressure;Samples;Min_cycle;Max_cycle;Signal;HPM_P1;HPM_P2
2022/10/12 00:00:53;;;;;;;;;;;;;;;;;;2106160;28;19927;-44
2022/10/12 00:01:54;;;;;;;;;;;;;;;;;;2106350;28;20313;-44
2022/10/12 00:02:54;;;;;;;;;;;;;;;;;;2106210;28;20006;-46
2022/10/12 00:03:55;;;;;;;;;;;;;;;;;;2106309;28;19919;-44
2022/10/12 00:04:56;;;;;;;;;;;;;;;;;;2106276;28;19927;-46
2022/10/12 00:05:57;;;;;;;;;;;;;;;;;;2106154;28;20361;-46
2022/10/12 00:06:58;;;;;;;;;;;;;;;;;;2106126;28;19924;-44
2022/10/12 00:07:59;;;;;;;;;;;;;;;;;;2106294;28;19927;-45
2022/10/12 00:08:59;;;;;;;;;;;;;;;;;;2106307;28;19932;-45
2022/10/12 00:10:00;;;;;;;;;;;;;;;;;;2102868;28;20035;-45
2022/10/12 00:11:01;;;;;;;;;;;;;;;;;;2097771;28;19920;-45
2022/10/12 00:12:02;;;;;;;;;;;;;;;;;;2097699;28;19955;-45
2022/10/12 00:13:02;;;;;;;;;;;;;;;;;;2098038;28;20341;-44
2022/10/12 00:14:03;;;;;;;;;;;;;;;;;;2097723;28;19974;-44
2022/10/12 00:15:04;;;;;;;;;;;;;;;;;;2097828;28;19931;-45
2022/10/12 00:16:05;;;;;;;;;;;;;;;;;;2097704;28;20404;-44
2022/10/12 00:17:06;;;;;;;;;;;;;;;;;;2097646;28;19927;-45
2022/10/12 00:18:07;;;;;;;;;;;;;;;;;;2097804;28;19954;-44
2022/10/12 00:19:07;;;;;;;;;;;;;;;;;;2097877;28;20293;-44
2022/10/12 00:20:08;;;;;;;;;;;;;;;;;;2097875;28;19982;-45
2022/10/12 00:21:09;;;;;;;;;;;;;;;;;;2097627;28;19927;-44
2022/10/12 00:22:10;;;;;;;;;;;;;;;;;;2097615;28;19963;-44
2022/10/12 00:23:10;;;;;;;;;;;;;;;;;;2097739;28;19924;-44
2022/10/12 00:24:11;;;;;;;;;;;;;;;;;;2097861;28;19920;-44
2022/10/12 00:25:12;;;;;;;;;;;;;;;;;;2097681;28;19932;-45
2022/10/12 00:26:13;;;;;;;;;;;;;;;;;;2097600;28;19921;-44
2022/10/12 00:27:14;;;;;;;;;;;;;;;;;;2097746;28;19972;-45
2022/10/12 00:28:15;;;;;;;;;;;;;;;;;;2097725;28;19921;-45
2022/10/12 00:29:15;;;;;;;;;;;;;;;;;;2097670;28;19928;-45
2022/10/12 00:30:16;;;;;;;;;;;;;;;;;;2097530;28;19982;-44
2022/10/12 00:31:17;;;;;;;;;;;;;;;;;;2097653;28;20003;-44
2022/10/12 00:32:19;;;;;;;;;;;;;;;;;;2097635;28;19921;-45
2022/10/12 00:33:19;;;;;;;;;;;;;;;;;;2097762;28;19920;-45
2022/10/12 00:34:20;;;;;;;;;;;;;;;;;;2097656;28;19967;-45
2022/10/12 00:35:21;;;;;;;;;;;;;;;;;;2097682;28;19920;-45
2022/10/12 00:36:22;;;;;;;;;;;;;;;;;;2097867;28;19924;-45
2022/10/12 00:37:23;;;;;;;;;;;;;;;;;;2098947;28;19920;-45
2022/10/12 00:38:23;;;;;;;;;;;;;;;;;;2099065;28;19970;-45
2022/10/12 00:39:24;;;;;;;;;;;;;;;;;;2099209;28;19927;-44
2022/10/12 00:40:25;;;;;;;;;;;;;;;;;;2099227;28;19943;-44
2022/10/12 00:41:26;;;;;;;;;;;;;;;;;;2099015;28;19966;-45
2022/10/12 00:42:27;;;;;;;;;;;;;;;;;;2101294;28;20350;-44
2022/10/12 00:43:28;;;;;;;;;;;;;;;;;;2107345;28;19927;-44
2022/10/12 00:44:28;;;;;;;;;;;;;;;;;;2107391;28;19920;-45
2022/10/12 00:45:29;;;;;;;;;;;;;;;;;;2107258;28;20109;-44
2022/10/12 00:46:30;;;;;;;;;;;;;;;;;;2107306;28;19920;-44
2022/10/12 00:47:31;;;;;;;;;;;;;;;;;;2107116;28;19973;-44
2022/10/12 00:48:32;;;;;;;;;;;;;;;;;;2107459;28;19927;-44
2022/10/12 00:49:33;;;;;;;;;;;;;;;;;;2107443;28;20300;-44
2022/10/12 00:50:33;;;;;;;;;;;;;;;;;;2107401;28;19943;-44
2022/10/12 00:51:34;;;;;;;;;;;;;;;;;;2107219;28;19982;-44
2022/10/12 00:52:35;;;;;;;;;;;;;;;;;;2107290;28;19966;-44
2022/10/12 00:53:36;;;;;;;;;;;;;;;;;;2107309;28;19920;-44
2022/10/12 00:54:37;;;;;;;;;;;;;;;;;;2107315;28;19920;-45
2022/10/12 00:55:37;;;;;;;;;;;;;;;;;;2107574;28;20397;-45
2022/10/12 00:56:38;;;;;;;;;;;;;;;;;;2107272;28;19928;-44
2022/10/12 00:57:39;;;;;;;;;;;;;;;;;;2107302;28;19985;-44
2022/10/12 00:58:46;;;;;;;;;;;;;;;;;;2107393;28;20019;-44
2022/10/12 00:59:47;;;;;;;;;;;;;;;;;;2107279;28;19960;-44
2022/10/12 01:00:48;;;;;;;;;;;;;;;;;;2107358;28;19920;-44
2022/10/12 01:01:49;;;;;;;;;;;;;;;;;;2107269;28;19919;-45
2022/10/12 01:02:49;;;;;;;;;;;;;;;;;;2107286;28;19920;-44
2022/10/12 01:03:50;;;;;;;;;;;;;;;;;;2107185;28;19927;-44
2022/10/12 01:04:51;;;;;;;;;;;;;;;;;;2107371;28;19960;-45
2022/10/12 01:05:52;;;;;;;;;;;;;;;;;;2107153;28;20039;-44
2022/10/12 01:06:53;;;;;;;;;;;;;;;;;;2107160;28;19920;-44
2022/10/12 01:07:53;;;;;;;;;;;;;;;;;;2107145;28;20007;-45
2022/10/12 01:08:54;;;;;;;;;;;;;;;;;;2107335;28;20448;-44
2022/10/12 01:09:55;;;;;;;;;;;;;;;;;;2104715;28;20022;-45
2022/10/12 01:10:56;;;;;;;;;;;;;;;;;;2099024;28;19920;-45
2022/10/12 01:11:57;;;;;;;;;;;;;;;;;;2098591;28;19970;-44
2022/10/12 01:12:58;;;;;;;;;;;;;;;;;;2104335;28;19919;-45
2022/10/12 01:13:59;;;;;;;;;;;;;;;;;;2107226;28;19927;-44
2022/10/12 01:14:59;;;;;;;;;;;;;;;;;;2107188;28;19920;-44
2022/10/12 01:16:00;;;;;;;;;;;;;;;;;;2107135;28;19958;-45
2022/10/12 01:17:01;;;;;;;;;;;;;;;;;;2107122;28;19920;-45
2022/10/12 01:18:02;;;;;;;;;;;;;;;;;;2107348;28;20336;-44
2022/10/12 01:19:03;;;;;;;;;;;;;;;;;;2107126;28;19920;-45
2022/10/12 01:20:04;;;;;;;;;;;;;;;;;;2107284;28;19924;-45
2022/10/12 01:21:04;;;;;;;;;;;;;;;;;;2107116;28;19931;-44
2022/10/12 01:22:05;;;;;;;;;;;;;;;;;;2107077;28;19967;-45
2022/10/12 01:23:06;;;;;;;;;;;;;;;;;;2107140;28;19920;-44
2022/10/12 01:24:07;;;;;;;;;;;;;;;;;;2107139;28;19920;-44
2022/10/12 01:25:08;;;;;;;;;;;;;;;;;;2107254;28;19926;-45
2022/10/12 01:26:09;;;;;;;;;;;;;;;;;;2107023;28;20291;-44
2022/10/12 01:27:09;;;;;;;;;;;;;;;;;;2107052;28;19927;-45
2022/10/12 01:28:10;;;;;;;;;;;;;;;;;;2107097;28;19955;-45
2022/10/12 01:29:11;;;;;;;;;;;;;;;;;;2107227;28;20389;-44
2022/10/12 01:30:12;;;;;;;;;;;;;;;;;;2107049;28;19920;-44
2022/10/12 01:31:13;;;;;;;;;;;;;;;;;;2107207;28;20361;-44
2022/10/12 01:32:14;;;;;;;;;;;;;;;;;;2107171;28;19920;-44
2022/10/12 01:33:14;;;;;;;;;;;;;;;;;;2106910;28;20031;-44
2022/10/12 01:34:15;;;;;;;;;;;;;;;;;;2107305;28;19926;-44
2022/10/12 01:35:16;;;;;;;;;;;;;;;;;;2107152;28;19920;-45
2022/10/12 01:36:17;;;;;;;;;;;;;;;;;;2106999;28;19942;-45
2022/10/12 01:37:17;;;;;;;;;;;;;;;;;;2106950;28;19920;-44
2022/10/12 01:38:18;;;;;;;;;;;;;;;;;;2107048;28;19920;-44
2022/10/12 01:39:19;;;;;;;;;;;;;;;;;;2107116;28;19924;-44
2022/10/12 01:40:20;;;;;;;;;;;;;;;;;;2107203;28;19920;-45
2022/10/12 01:41:21;;;;;;;;;;;;;;;;;;2106964;28;20007;-45
2022/10/12 01:42:22;;;;;;;;;;;;;;;;;;2107050;28;19959;-44
2022/10/12 01:43:22;;;;;;;;;;;;;;;;;;2107250;28;20337;-45
2022/10/12 01:44:23;;;;;;;;;;;;;;;;;;2106931;28;19924;-44
2022/10/12 01:45:24;;;;;;;;;;;;;;;;;;2107119;28;19997;-44
2022/10/12 01:46:25;;;;;;;;;;;;;;;;;;2106949;28;19959;-44
2022/10/12 01:47:26;;;;;;;;;;;;;;;;;;2106749;28;19922;-45
2022/10/12 01:48:27;;;;;;;;;;;;;;;;;;2107025;28;19959;-44
2022/10/12 01:49:27;;;;;;;;;;;;;;;;;;2107161;28;20413;-44
2022/10/12 01:50:28;;;;;;;;;;;;;;;;;;2107034;28;19959;-45
2022/10/12 01:51:29;;;;;;;;;;;;;;;;;;2107018;28;20361;-44
2022/10/12 01:52:30;;;;;;;;;;;;;;;;;;2107086;28;20351;-44
2022/10/12 01:53:31;;;;;;;;;;;;;;;;;;2106890;28;19927;-45
2022/10/12 01:54:32;;;;;;;;;;;;;;;;;;2107058;28;19920;-44
2022/10/12 01:55:32;;;;;;;;;;;;;;;;;;2106945;28;19943;-44
2022/10/12 01:56:33;;;;;;;;;;;;;;;;;;2106999;28;19974;-45
2022/10/12 01:57:34;;;;;;;;;;;;;;;;;;2106870;28;20023;-45
2022/10/12 01:58:35;;;;;;;;;;;;;;;;;;2107040;28;19927;-44
2022/10/12 01:59:36;;;;;;;;;;;;;;;;;;2106835;28;19926;-45
2022/10/12 02:00:37;;;;;;;;;;;;;;;;;;2106858;28;19920;-44
2022/10/12 02:01:37;;;;;;;;;;;;;;;;;;2106837;28;19960;-45
2022/10/12 02:02:38;;;;;;;;;;;;;;;;;;2107023;28;19981;-45
2022/10/12 02:03:39;;;;;;;;;;;;;;;;;;2106944;28;19920;-44
2022/10/12 02:04:40;;;;;;;;;;;;;;;;;;2106799;28;19920;-45
2022/10/12 02:05:41;;;;;;;;;;;;;;;;;;2106942;28;20272;-45
2022/10/12 02:06:42;;;;;;;;;;;;;;;;;;2106753;28;19943;-46
2022/10/12 02:07:43;;;;;;;;;;;;;;;;;;2106937;28;19959;-45
2022/10/12 02:08:43;;;;;;;;;;;;;;;;;;2106916;28;19962;-45
2022/10/12 02:09:44;;;;;;;;;;;;;;;;;;2105752;28;20369;-45
2022/10/12 02:10:45;;;;;;;;;;;;;;;;;;2098385;28;19927;-44
2022/10/12 02:11:46;;;;;;;;;;;;;;;;;;2098441;28;20377;-45
2022/10/12 02:12:47;;;;;;;;;;;;;;;;;;2098558;28;19993;-44
2022/10/12 02:13:48;;;;;;;;;;;;;;;;;;2098376;28;20369;-45
2022/10/12 02:14:49;;;;;;;;;;;;;;;;;;2098444;28;20251;-45
2022/10/12 02:15:49;;;;;;;;;;;;;;;;;;2098343;28;19932;-45
2022/10/12 02:16:50;;;;;;;;;;;;;;;;;;2098452;28;20017;-44
2022/10/12 02:17:51;;;;;;;;;;;;;;;;;;2098460;28;20117;-45
2022/10/12 02:18:52;;;;;;;;;;;;;;;;;;2098453;28;20023;-45
2022/10/12 02:19:52;;;;;;;;;;;;;;;;;;2098418;28;19999;-44
2022/10/12 02:20:53;;;;;;;;;;;;;;;;;;2098511;28;19921;-45
2022/10/12 02:21:54;;;;;;;;;;;;;;;;;;2098373;28;19969;-44
2022/10/12 02:22:55;;;;;;;;;;;;;;;;;;2098370;28;20247;-45
2022/10/12 02:23:56;;;;;;;;;;;;;;;;;;2098400;28;19920;-44
2022/10/12 02:24:57;;;;;;;;;;;;;;;;;;2098335;28;19920;-45
2022/10/12 02:25:57;;;;;;;;;;;;;;;;;;2098409;28;19947;-45
2022/10/12 02:26:58;;;;;;;;;;;;;;;;;;2098269;28;20052;-45
2022/10/12 02:27:59;;;;;;;;;;;;;;;;;;2098440;28;19921;-45
2022/10/12 02:29:00;;;;;;;;;;;;;;;;;;2098336;28;19920;-44
2022/10/12 02:30:01;;;;;;;;;;;;;;;;;;2098476;28;19920;-44
2022/10/12 02:31:02;;;;;;;;;;;;;;;;;;2098409;28;19921;-45
2022/10/12 02:32:03;;;;;;;;;;;;;;;;;;2098262;28;19927;-44
2022/10/12 02:33:04;;;;;;;;;;;;;;;;;;2098429;28;20011;-45
2022/10/12 02:34:04;;;;;;;;;;;;;;;;;;2098254;28;19970;-45
2022/10/12 02:35:05;;;;;;;;;;;;;;;;;;2098343;28;19921;-45
2022/10/12 02:36:06;;;;;;;;;;;;;;;;;;2098275;28;19966;-44
2022/10/12 02:37:07;;;;;;;;;;;;;;;;;;2098248;28;19924;-44
2022/10/12 02:38:08;;;;;;;;;;;;;;;;;;2098344;28;19920;-44
2022/10/12 02:39:09;;;;;;;;;;;;;;;;;;2098423;28;20364;-44
2022/10/12 02:40:10;;;;;;;;;;;;;;;;;;2102478;28;19928;-44
2022/10/12 02:41:11;;;;;;;;;;;;;;;;;;2106675;28;19920;-45
2022/10/12 02:42:11;;;;;;;;;;;;;;;;;;2106548;28;19927;-44
2022/10/12 02:43:12;;;;;;;;;;;;;;;;;;2106770;28;20010;-45
2022/10/12 02:44:13;;;;;;;;;;;;;;;;;;2106743;28;20253;-44
2022/10/12 02:45:14;;;;;;;;;;;;;;;;;;2106603;28;19924;-44
2022/10/12 02:46:15;;;;;;;;;;;;;;;;;;2106648;28;19924;-44
2022/10/12 02:47:16;;;;;;;;;;;;;;;;;;2106524;28;20445;-44
2022/10/12 02:48:16;;;;;;;;;;;;;;;;;;2106700;28;19920;-44
2022/10/12 02:49:17;;;;;;;;;;;;;;;;;;2106546;28;19969;-44
2022/10/12 02:50:18;;;;;;;;;;;;;;;;;;2106741;28;19920;-44
2022/10/12 02:51:19;;;;;;;;;;;;;;;;;;2106569;28;19967;-44
2022/10/12 02:52:19;;;;;;;;;;;;;;;;;;2106464;28;19919;-44
2022/10/12 02:53:20;;;;;;;;;;;;;;;;;;2106634;28;19952;-45
2022/10/12 02:54:21;;;;;;;;;;;;;;;;;;2106729;28;20372;-45
2022/10/12 02:55:22;;;;;;;;;;;;;;;;;;2106640;28;19920;-44
2022/10/12 02:56:23;;;;;;;;;;;;;;;;;;2106563;28;19920;-44
2022/10/12 02:57:24;;;;;;;;;;;;;;;;;;2106464;28;19967;-44
2022/10/12 02:58:25;;;;;;;;;;;;;;;;;;2106467;28;19931;-44
2022/10/12 02:59:26;;;;;;;;;;;;;;;;;;2105870;28;19920;-44
2022/10/12 03:00:26;;;;;;;;;;;;;;;;;;2106589;28;19920;-44
2022/10/12 03:01:27;;;;;;;;;;;;;;;;;;2106505;28;19926;-44
2022/10/12 03:02:28;;;;;;;;;;;;;;;;;;2106475;28;20364;-44
2022/10/12 03:03:29;;;;;;;;;;;;;;;;;;2106600;28;20010;-45
2022/10/12 03:04:30;;;;;;;;;;;;;;;;;;2106610;28;19927;-44
2022/10/12 03:05:31;;;;;;;;;;;;;;;;;;2106463;28;19942;-44
2022/10/12 03:06:31;;;;;;;;;;;;;;;;;;2106298;28;19920;-44
2022/10/12 03:07:32;;;;;;;;;;;;;;;;;;2106519;28;19981;-44
2022/10/12 03:08:33;;;;;;;;;;;;;;;;;;2106504;28;19942;-45
2022/10/12 03:09:34;;;;;;;;;;;;;;;;;;2106430;28;19974;-44
2022/10/12 03:10:34;;;;;;;;;;;;;;;;;;2098496;28;19924;-44
2022/10/12 03:11:36;;;;;;;;;;;;;;;;;;2098057;28;20007;-44
2022/10/12 03:12:37;;;;;;;;;;;;;;;;;;2098196;28;19921;-44
2022/10/12 03:13:38;;;;;;;;;;;;;;;;;;2098022;28;19966;-44
2022/10/12 03:14:39;;;;;;;;;;;;;;;;;;2098156;28;19926;-44
2022/10/12 03:15:40;;;;;;;;;;;;;;;;;;2098020;28;19943;-44
2022/10/12 03:16:41;;;;;;;;;;;;;;;;;;2097935;28;19921;-44
2022/10/12 03:17:42;;;;;;;;;;;;;;;;;;2098204;28;19920;-44
2022/10/12 03:18:42;;;;;;;;;;;;;;;;;;2098065;28;19921;-44
2022/10/12 03:19:44;;;;;;;;;;;;;;;;;;2098053;28;19948;-44
2022/10/12 03:20:44;;;;;;;;;;;;;;;;;;2098017;28;19924;-44
2022/10/12 03:21:45;;;;;;;;;;;;;;;;;;2097951;28;19970;-44
2022/10/12 03:22:46;;;;;;;;;;;;;;;;;;2097974;28;19928;-44
2022/10/12 03:23:47;;;;;;;;;;;;;;;;;;2098113;28;19978;-44
2022/10/12 03:24:48;;;;;;;;;;;;;;;;;;2098146;28;20285;-44
2022/10/12 03:25:48;;;;;;;;;;;;;;;;;;2097891;28;19920;-44
2022/10/12 03:26:49;;;;;;;;;;;;;;;;;;2097900;28;19959;-45
2022/10/12 03:27:50;;;;;;;;;;;;;;;;;;2098023;28;20475;-44
2022/10/12 03:28:51;;;;;;;;;;;;;;;;;;2098132;28;19927;-45
2022/10/12 03:29:52;;;;;;;;;;;;;;;;;;2098049;28;19920;-44
2022/10/12 03:30:52;;;;;;;;;;;;;;;;;;2098117;28;19920;-44
2022/10/12 03:31:53;;;;;;;;;;;;;;;;;;2097849;28;19927;-44
2022/10/12 03:32:54;;;;;;;;;;;;;;;;;;2097956;28;19931;-44
2022/10/12 03:33:55;;;;;;;;;;;;;;;;;;2097900;28;20020;-44
2022/10/12 03:34:56;;;;;;;;;;;;;;;;;;2098114;28;19956;-44
2022/10/12 03:35:56;;;;;;;;;;;;;;;;;;2098328;28;20368;-44
2022/10/12 03:36:57;;;;;;;;;;;;;;;;;;2106155;28;19971;-44
2022/10/12 03:37:58;;;;;;;;;;;;;;;;;;2106331;28;19928;-44
2022/10/12 03:38:59;;;;;;;;;;;;;;;;;;2106327;28;19926;-44
2022/10/12 03:40:00;;;;;;;;;;;;;;;;;;2106437;28;20365;-44
2022/10/12 03:41:01;;;;;;;;;;;;;;;;;;2106269;28;19920;-44
2022/10/12 03:42:06;;;;;;;;;;;;;;;;;;2106309;28;19920;-45
2022/10/12 03:43:07;;;;;;;;;;;;;;;;;;2106291;28;20365;-44
2022/10/12 03:44:08;;;;;;;;;;;;;;;;;;2106257;28;20369;-44
2022/10/12 03:45:09;;;;;;;;;;;;;;;;;;2106463;28;19920;-44
2022/10/12 03:46:09;;;;;;;;;;;;;;;;;;2106149;28;19920;-44
2022/10/12 03:47:10;;;;;;;;;;;;;;;;;;2106218;28;20391;-44
2022/10/12 03:48:11;;;;;;;;;;;;;;;;;;2106455;28;19959;-44
2022/10/12 03:49:12;;;;;;;;;;;;;;;;;;2106265;28;20357;-44
2022/10/12 03:50:13;;;;;;;;;;;;;;;;;;2106366;28;19966;-44
2022/10/12 03:51:14;;;;;;;;;;;;;;;;;;2106228;28;19927;-45
2022/10/12 03:52:14;;;;;;;;;;;;;;;;;;2106108;28;19963;-44
2022/10/12 03:53:15;;;;;;;;;;;;;;;;;;2106348;28;20372;-44
2022/10/12 03:54:16;;;;;;;;;;;;;;;;;;2106298;28;19927;-44
2022/10/12 03:55:17;;;;;;;;;;;;;;;;;;2106214;28;20023;-44
2022/10/12 03:56:18;;;;;;;;;;;;;;;;;;2106347;28;19920;-44
2022/10/12 03:57:19;;;;;;;;;;;;;;;;;;2106058;28;20393;-44
2022/10/12 03:58:19;;;;;;;;;;;;;;;;;;2106341;28;20424;-44
2022/10/12 03:59:20;;;;;;;;;;;;;;;;;;2106226;28;19971;-44
2022/10/12 04:00:21;;;;;;;;;;;;;;;;;;2106193;28;19920;-44
2022/10/12 04:01:22;;;;;;;;;;;;;;;;;;2106147;28;19920;-44
2022/10/12 04:02:23;;;;;;;;;;;;;;;;;;2106267;28;19920;-44
2022/10/12 04:03:24;;;;;;;;;;;;;;;;;;2106287;28;20365;-44
2022/10/12 04:04:24;;;;;;;;;;;;;;;;;;2106282;28;20302;-44
2022/10/12 04:05:25;;;;;;;;;;;;;;;;;;2106271;28;20432;-44
2022/10/12 04:06:26;;;;;;;;;;;;;;;;;;2106253;28;20198;-44
2022/10/12 04:07:27;;;;;;;;;;;;;;;;;;2106161;28;20363;-44
2022/10/12 04:08:29;;;;;;;;;;;;;;;;;;2106190;28;19967;-44
2022/10/12 04:09:30;;;;;;;;;;;;;;;;;;2106144;28;19920;-44
2022/10/12 04:10:31;;;;;;;;;;;;;;;;;;2098588;28;20430;-44
2022/10/12 04:11:31;;;;;;;;;;;;;;;;;;2098273;28;19973;-44
2022/10/12 04:12:32;;;;;;;;;;;;;;;;;;2099276;28;20029;-44
2022/10/12 04:13:33;;;;;;;;;;;;;;;;;;2099335;28;19920;-44
2022/10/12 04:14:34;;;;;;;;;;;;;;;;;;2099157;28;20407;-44
2022/10/12 04:15:35;;;;;;;;;;;;;;;;;;2099329;28;19924;-44
2022/10/12 04:16:36;;;;;;;;;;;;;;;;;;2099212;28;19920;-44
2022/10/12 04:17:36;;;;;;;;;;;;;;;;;;2099297;28;19920;-44
2022/10/12 04:18:38;;;;;;;;;;;;;;;;;;2099154;28;19927;-44
2022/10/12 04:19:38;;;;;;;;;;;;;;;;;;2099178;28;19927;-44
2022/10/12 04:20:39;;;;;;;;;;;;;;;;;;2099295;28;20005;-44
2022/10/12 04:21:40;;;;;;;;;;;;;;;;;;2099164;28;19920;-44
2022/10/12 04:22:41;;;;;;;;;;;;;;;;;;2099289;28;20418;-44
2022/10/12 04:23:42;;;;;;;;;;;;;;;;;;2099115;28;20320;-44
2022/10/12 04:24:43;;;;;;;;;;;;;;;;;;2099150;28;20002;-44
2022/10/12 04:25:43;;;;;;;;;;;;;;;;;;2099116;28;19921;-44
2022/10/12 04:26:44;;;;;;;;;;;;;;;;;;2099189;28;20292;-44
2022/10/12 04:27:45;;;;;;;;;;;;;;;;;;2099223;28;19928;-44
2022/10/12 04:28:46;;;;;;;;;;;;;;;;;;2099110;28;20003;-44
2022/10/12 04:29:46;;;;;;;;;;;;;;;;;;2099317;28;19920;-44
2022/10/12 04:30:47;;;;;;;;;;;;;;;;;;2099123;28;20319;-44
2022/10/12 04:31:48;;;;;;;;;;;;;;;;;;2099169;28;19921;-44
2022/10/12 04:32:51;;;;;;;;;;;;;;;;;;2104455;28;19927;-44
2022/10/12 04:33:55;;;;;;;;;;;;;;;;;;2107438;28;19920;-44
2022/10/12 04:34:56;;;;;;;;;;;;;;;;;;2107454;28;19920;-44
2022/10/12 04:35:56;;;;;;;;;;;;;;;;;;2107443;28;20212;-44
2022/10/12 04:36:57;;;;;;;;;;;;;;;;;;2107304;28;19973;-44
2022/10/12 04:37:58;;;;;;;;;;;;;;;;;;2107449;28;19920;-44
2022/10/12 04:38:59;;;;;;;;;;;;;;;;;;2107573;28;19964;-44
2022/10/12 04:40:02;;;;;;;;;;;;;;;;;;2107371;28;19920;-44
2022/10/12 04:41:03;;;;;;;;;;;;;;;;;;2107590;28;19924;-44
2022/10/12 04:42:05;;;;;;;;;;;;;;;;;;2107392;28;20427;-44
2022/10/12 04:43:06;;;;;;;;;;;;;;;;;;2107371;28;20269;-44
2022/10/12 04:44:07;;;;;;;;;;;;;;;;;;2107370;28;19970;-44
2022/10/12 04:45:08;;;;;;;;;;;;;;;;;;2107383;28;19920;-44
2022/10/12 04:46:09;;;;;;;;;;;;;;;;;;2107203;28;19924;-44
2022/10/12 04:47:09;;;;;;;;;;;;;;;;;;2107276;28;20384;-44
2022/10/12 04:48:10;;;;;;;;;;;;;;;;;;2107331;28;19920;-44
2022/10/12 04:49:11;;;;;;;;;;;;;;;;;;2107475;28;20003;-44
2022/10/12 04:50:12;;;;;;;;;;;;;;;;;;2107404;28;20284;-44
2022/10/12 04:51:13;;;;;;;;;;;;;;;;;;2107345;28;19920;-44
2022/10/12 04:52:13;;;;;;;;;;;;;;;;;;2107265;28;19927;-44
2022/10/12 04:53:14;;;;;;;;;;;;;;;;;;2107435;28;19976;-44
2022/10/12 04:54:15;;;;;;;;;;;;;;;;;;2107586;28;20031;-44
2022/10/12 04:55:16;;;;;;;;;;;;;;;;;;2107252;28;20024;-44
2022/10/12 04:56:17;;;;;;;;;;;;;;;;;;2107305;28;20003;-44
2022/10/12 04:57:18;;;;;;;;;;;;;;;;;;2107281;28;19920;-44
2022/10/12 04:58:18;;;;;;;;;;;;;;;;;;2107278;28;19920;-44
2022/10/12 04:59:19;;;;;;;;;;;;;;;;;;2107431;28;19920;-44
2022/10/12 05:00:20;;;;;;;;;;;;;;;;;;2107242;28;19920;-44
2022/10/12 05:01:21;;;;;;;;;;;;;;;;;;2107328;28;19923;-44
2022/10/12 05:02:22;;;;;;;;;;;;;;;;;;2107174;28;19920;-44
2022/10/12 05:03:22;;;;;;;;;;;;;;;;;;2107388;28;19986;-44
2022/10/12 05:04:23;;;;;;;;;;;;;;;;;;2107249;28;20003;-44
2022/10/12 05:05:24;;;;;;;;;;;;;;;;;;2107410;28;19943;-44
2022/10/12 05:06:25;;;;;;;;;;;;;;;;;;2107113;28;19924;-44
2022/10/12 05:07:26;;;;;;;;;;;;;;;;;;2107152;28;19920;-44
2022/10/12 05:08:26;;;;;;;;;;;;;;;;;;2107292;28;19966;-44
2022/10/12 05:09:27;;;;;;;;;;;;;;;;;;2107203;28;19978;-44
2022/10/12 05:10:28;;;;;;;;;;;;;;;;;;2100246;28;19920;-44
2022/10/12 05:11:29;;;;;;;;;;;;;;;;;;2098791;28;20270;-44
2022/10/12 05:12:30;;;;;;;;;;;;;;;;;;2098877;28;19921;-44
2022/10/12 05:13:31;;;;;;;;;;;;;;;;;;2098820;28;19924;-44
2022/10/12 05:14:31;;;;;;;;;;;;;;;;;;2098833;28;19920;-44
2022/10/12 05:15:36;;;;;;;;;;;;;;;;;;2098779;28;19963;-44
2022/10/12 05:16:37;;;;;;;;;;;;;;;;;;2098704;28;19920;-44
2022/10/12 05:17:38;;;;;;;;;;;;;;;;;;2098928;28;19920;-44
2022/10/12 05:18:39;;;;;;;;;;;;;;;;;;2098973;28;19920;-44
2022/10/12 05:19:40;;;;;;;;;;;;;;;;;;2098779;28;19921;-44
2022/10/12 05:20:40;;;;;;;;;;;;;;;;;;2098882;28;19920;-44
2022/10/12 05:21:41;;;;;;;;;;;;;;;;;;2098786;28;20015;-44
2022/10/12 05:22:42;;;;;;;;;;;;;;;;;;2101002;28;19926;-44
2022/10/12 05:23:43;;;;;;;;;;;;;;;;;;2107493;28;19920;-44
2022/10/12 05:24:44;;;;;;;;;;;;;;;;;;2107079;28;19923;-44
2022/10/12 05:25:45;;;;;;;;;;;;;;;;;;2107247;28;19969;-44
2022/10/12 05:26:46;;;;;;;;;;;;;;;;;;2107074;28;19927;-44
2022/10/12 05:27:47;;;;;;;;;;;;;;;;;;2107285;28;19920;-44
2022/10/12 05:28:47;;;;;;;;;;;;;;;;;;2106863;28;19920;-44
2022/10/12 05:29:48;;;;;;;;;;;;;;;;;;2107115;28;19970;-44
2022/10/12 05:30:49;;;;;;;;;;;;;;;;;;2107233;28;19950;-44
2022/10/12 05:31:50;;;;;;;;;;;;;;;;;;2106944;28;20335;-44
2022/10/12 05:32:51;;;;;;;;;;;;;;;;;;2107210;28;19963;-44
2022/10/12 05:33:52;;;;;;;;;;;;;;;;;;2107092;28;19986;-44
2022/10/12 05:34:54;;;;;;;;;;;;;;;;;;2107038;28;20011;-44
2022/10/12 05:35:54;;;;;;;;;;;;;;;;;;2107048;28;19943;-44
2022/10/12 05:36:57;;;;;;;;;;;;;;;;;;2106920;28;20006;-44
2022/10/12 05:37:58;;;;;;;;;;;;;;;;;;2107083;28;19920;-44
2022/10/12 05:38:58;;;;;;;;;;;;;;;;;;2107185;28;19943;-44
2022/10/12 05:39:59;;;;;;;;;;;;;;;;;;2106945;28;20022;-44
2022/10/12 05:41:00;;;;;;;;;;;;;;;;;;2106988;28;19927;-44
2022/10/12 05:42:01;;;;;;;;;;;;;;;;;;2106935;28;19955;-44
2022/10/12 05:43:02;;;;;;;;;;;;;;;;;;2107026;28;19924;-44
2022/10/12 05:44:03;;;;;;;;;;;;;;;;;;2107031;28;19974;-44
2022/10/12 05:45:03;;;;;;;;;;;;;;;;;;2106994;28;19926;-44
2022/10/12 05:46:04;;;;;;;;;;;;;;;;;;2107109;28;19963;-44
2022/10/12 05:47:05;;;;;;;;;;;;;;;;;;2106911;28;19970;-44
2022/10/12 05:48:06;;;;;;;;;;;;;;;;;;2107090;28;19931;-44
2022/10/12 05:49:07;;;;;;;;;;;;;;;;;;2107073;28;20356;-44
2022/10/12 05:50:08;;;;;;;;;;;;;;;;;;2107037;28;19927;-44
2022/10/12 05:51:09;;;;;;;;;;;;;;;;;;2106897;28;19920;-44
2022/10/12 05:52:09;;;;;;;;;;;;;;;;;;2106999;28;19965;-45
2022/10/12 05:53:10;;;;;;;;;;;;;;;;;;2106926;28;19942;-44
2022/10/12 05:54:11;;;;;;;;;;;;;;;;;;2106864;28;19976;-44
2022/10/12 05:55:12;;;;;;;;;;;;;;;;;;2107002;28;19927;-44
2022/10/12 05:56:13;;;;;;;;;;;;;;;;;;2106949;28;20391;-44
2022/10/12 05:57:14;;;;;;;;;;;;;;;;;;2106816;28;19971;-44
2022/10/12 05:58:15;;;;;;;;;;;;;;;;;;2107014;28;19927;-44
2022/10/12 05:59:15;;;;;;;;;;;;;;;;;;2107039;28;19923;-44
2022/10/12 06:00:16;;;;;;;;;;;;;;;;;;2106892;28;19927;-44
2022/10/12 06:01:17;;;;;;;;;;;;;;;;;;2106811;28;19920;-44
2022/10/12 06:02:18;;;;;;;;;;;;;;;;;;2106955;28;19920;-44
2022/10/12 06:03:19;;;;;;;;;;;;;;;;;;2106841;28;19920;-44
2022/10/12 06:04:23;;;;;;;;;;;;;;;;;;2106951;28;19928;-44
2022/10/12 06:05:24;;;;;;;;;;;;;;;;;;2106909;28;19955;-44
2022/10/12 06:06:25;;;;;;;;;;;;;;;;;;2106796;28;20385;-44
2022/10/12 06:07:26;;;;;;;;;;;;;;;;;;2106868;28;19950;-44
2022/10/12 06:08:27;;;;;;;;;;;;;;;;;;2106844;28;19920;-44
2022/10/12 06:09:27;;;;;;;;;;;;;;;;;;2106811;28;19952;-44
2022/10/12 06:10:28;;;;;;;;;;;;;;;;;;2099704;28;20018;-45
2022/10/12 06:11:30;;;;;;;;;;;;;;;;;;2098309;28;20380;-45
2022/10/12 06:12:34;;;;;;;;;;;;;;;;;;2098435;28;19924;-45
2022/10/12 06:13:35;;;;;;;;;;;;;;;;;;2098440;28;19982;-45
2022/10/12 06:14:36;;;;;;;;;;;;;;;;;;2098417;28;20014;-45
2022/10/12 06:15:36;;;;;;;;;;;;;;;;;;2098597;28;19927;-44
2022/10/12 06:16:37;;;;;;;;;;;;;;;;;;2098280;28;20233;-45
2022/10/12 06:17:38;;;;;;;;;;;;;;;;;;2098422;28;19920;-44
2022/10/12 06:18:39;;;;;;;;;;;;;;;;;;2098674;28;19921;-55
2022/10/12 06:19:40;;;;;;;;;;;;;;;;;;2098494;28;19920;-56
2022/10/12 06:20:41;;;;;;;;;;;;;;;;;;2098321;28;19920;-55
2022/10/12 06:21:41;;;;;;;;;;;;;;;;;;2098289;28;19921;-55
2022/10/12 06:22:42;;;;;;;;;;;;;;;;;;2098322;28;19975;-55
2022/10/12 06:23:43;;;;;;;;;;;;;;;;;;2098565;28;19920;-55
2022/10/12 06:24:44;;;;;;;;;;;;;;;;;;2098961;28;19924;-55
2022/10/12 06:25:45;;;;;;;;;;;;;;;;;;2106708;28;20169;-56
2022/10/12 06:26:45;;;;;;;;;;;;;;;;;;2106603;28;19924;-55
2022/10/12 06:27:46;;;;;;;;;;;;;;;;;;2106698;28;19920;-55
2022/10/12 06:28:47;;;;;;;;;;;;;;;;;;2106850;28;19965;-55
2022/10/12 06:29:48;;;;;;;;;;;;;;;;;;2106635;28;19963;-56
2022/10/12 06:30:49;;;;;;;;;;;;;;;;;;2106881;28;19927;-56
2022/10/12 06:31:49;;;;;;;;;;;;;;;;;;2106688;28;19920;-56
2022/10/12 06:32:52;;;;;;;;;;;;;;;;;;2106914;28;19991;-55
2022/10/12 06:33:53;;;;;;;;;;;;;;;;;;2106281;28;19920;-55
2022/10/12 06:34:53;;;;;;;;;;;;;;;;;;2106144;28;19963;-55
2022/10/12 06:35:54;;;;;;;;;;;;;;;;;;2106654;28;19920;-55
2022/10/12 06:36:55;;;;;;;;;;;;;;;;;;2106573;28;19920;-55
2022/10/12 06:38:01;;;;;;;;;;;;;;;;;;2106615;28;19924;-55
2022/10/12 06:39:02;;;;;;;;;;;;;;;;;;2106625;28;19928;-55
2022/10/12 06:40:02;;;;;;;;;;;;;;;;;;2106569;28;19919;-55
2022/10/12 06:41:03;;;;;;;;;;;;;;;;;;2106657;28;19926;-55
2022/10/12 06:42:04;;;;;;;;;;;;;;;;;;2106609;28;19964;-55
2022/10/12 06:43:05;;;;;;;;;;;;;;;;;;2106570;28;20019;-55
2022/10/12 06:44:07;;;;;;;;;;;;;;;;;;2106752;28;20420;-55
2022/10/12 06:45:08;;;;;;;;;;;;;;;;;;2106721;28;19927;-55
2022/10/12 06:46:08;;;;;;;;;;;;;;;;;;2106457;28;19920;-55
2022/10/12 06:47:09;;;;;;;;;;;;;;;;;;2106697;28;19919;-55
2022/10/12 06:48:10;;;;;;;;;;;;;;;;;;2106578;28;19920;-55
2022/10/12 06:49:15;;;;;;;;;;;;;;;;;;2106689;28;19942;-55
2022/10/12 06:50:16;;;;;;;;;;;;;;;;;;2106524;28;19924;-55
2022/10/12 06:51:16;;;;;;;;;;;;;;;;;;2106635;28;19970;-55
2022/10/12 06:52:17;;;;;;;;;;;;;;;;;;2106511;28;20335;-55
2022/10/12 06:53:18;;;;;;;;;;;;;;;;;;2106930;28;20288;-55
2022/10/12 06:54:19;;;;;;;;;;;;;;;;;;2106542;28;20379;-55
2022/10/12 06:55:20;;;;;;;;;;;;;;;;;;2106546;28;19920;-55
2022/10/12 06:56:21;;;;;;;;;;;;;;;;;;2106534;28;19927;-55